createdAt,value
2018-02-14T00:01:10.934Z,54.32
2018-02-14T00:03:39.342Z,54.30
2018-02-14T00:06:07.786Z,53.25
2018-02-14T00:08:36.273Z,51.99
2018-02-14T00:11:04.681Z,53.32
2018-02-14T00:13:33.073Z,52.66
2018-02-14T00:16:01.482Z,53.99
2018-02-14T00:18:29.874Z,52.48
2018-02-14T00:20:58.298Z,52.76
2018-02-14T00:23:26.726Z,52.59
2018-02-14T00:25:55.132Z,51.37
2018-02-14T00:28:23.538Z,51.15
2018-02-14T00:30:51.943Z,51.47
2018-02-14T00:33:20.359Z,52.04
2018-02-14T00:35:48.827Z,52.04
2018-02-14T00:38:17.216Z,51.99
2018-02-14T00:40:45.789Z,51.41
2018-02-14T00:43:14.169Z,52.89
2018-02-14T00:45:42.556Z,52.60
2018-02-14T00:48:11.115Z,51.46
2018-02-14T00:50:39.544Z,51.47
2018-02-14T00:53:08.121Z,51.41
2018-02-14T00:55:36.523Z,52.64
2018-02-14T00:58:05.153Z,50.39
2018-02-14T01:00:33.674Z,51.92
2018-02-14T01:03:02.078Z,53.00
2018-02-14T01:05:30.720Z,51.53
2018-02-14T01:07:59.143Z,50.00
2018-02-14T01:10:27.520Z,50.01
2018-02-14T01:12:55.964Z,52.05
2018-02-14T01:15:24.347Z,50.16
2018-02-14T01:17:52.767Z,49.73
2018-02-14T01:20:27.385Z,54.74
2018-02-14T01:22:55.920Z,51.46
2018-02-14T01:25:24.332Z,50.76
2018-02-14T01:27:52.731Z,52.84
2018-02-14T01:30:21.134Z,51.86
2018-02-14T01:32:49.535Z,51.96
2018-02-14T01:35:18.000Z,52.37
2018-02-14T01:37:46.410Z,50.64
2018-02-14T01:40:14.818Z,52.75
2018-02-14T01:42:43.215Z,52.94
2018-02-14T01:45:11.603Z,52.49
2018-02-14T01:47:40.051Z,54.16
2018-02-14T01:50:08.458Z,53.25
2018-02-14T01:52:36.858Z,52.00
2018-02-14T01:55:05.569Z,53.22
2018-02-14T01:57:33.968Z,52.10
2018-02-14T02:00:02.514Z,51.42
2018-02-14T02:02:30.924Z,51.12
2018-02-14T02:04:59.391Z,49.85
2018-02-14T02:07:27.779Z,50.21
2018-02-14T02:09:56.163Z,50.53
2018-02-14T02:12:24.633Z,51.35
2018-02-14T02:14:53.126Z,51.72
2018-02-14T02:17:21.508Z,48.95
2018-02-14T02:19:49.928Z,48.64
2018-02-14T02:22:18.283Z,48.58
2018-02-14T02:24:46.705Z,48.26
2018-02-14T02:27:15.093Z,48.97
2018-02-14T02:29:43.482Z,48.76
2018-02-14T02:32:11.878Z,49.11
2018-02-14T02:34:40.316Z,50.90
2018-02-14T02:37:08.892Z,50.42
2018-02-14T02:39:49.020Z,50.09
2018-02-14T02:42:17.462Z,49.84
2018-02-14T02:44:45.854Z,51.60
2018-02-14T02:47:14.251Z,52.16
2018-02-14T02:49:42.644Z,53.85
2018-02-14T02:52:11.044Z,54.12
2018-02-14T02:54:39.454Z,53.65
2018-02-14T02:57:07.936Z,53.23
2018-02-14T02:59:36.335Z,53.80
2018-02-14T03:02:04.815Z,52.84
2018-02-14T03:04:33.200Z,52.94
2018-02-14T03:07:01.617Z,50.84
2018-02-14T03:09:30.008Z,50.09
2018-02-14T03:11:58.447Z,49.64
2018-02-14T03:14:26.834Z,49.49
2018-02-14T03:16:55.216Z,49.64
2018-02-14T03:19:23.616Z,49.81
2018-02-14T03:21:52.089Z,51.01
2018-02-14T03:24:20.576Z,49.93
2018-02-14T03:26:49.041Z,48.11
2018-02-14T03:29:17.408Z,50.06
2018-02-14T03:31:45.802Z,48.72
2018-02-14T03:34:14.208Z,49.46
2018-02-14T03:36:42.671Z,50.10
2018-02-14T03:39:11.043Z,49.25
2018-02-14T03:41:39.526Z,49.52
2018-02-14T03:44:07.916Z,49.04
2018-02-14T03:46:36.316Z,47.74
2018-02-14T03:49:04.717Z,49.27
2018-02-14T03:51:33.111Z,49.08
2018-02-14T03:54:01.591Z,48.80
2018-02-14T03:56:29.981Z,48.92
2018-02-14T03:58:58.386Z,48.04
2018-02-14T04:01:26.861Z,49.01
2018-02-14T04:03:55.251Z,49.44
2018-02-14T04:06:23.655Z,48.14
2018-02-14T04:08:52.056Z,47.07
2018-02-14T04:11:20.534Z,46.25
2018-02-14T04:13:49.008Z,47.43
2018-02-14T04:16:17.369Z,48.48
2018-02-14T04:18:45.754Z,47.46
2018-02-14T04:21:14.152Z,48.06
2018-02-14T04:23:42.522Z,47.45
2018-02-14T04:26:11.041Z,48.21
2018-02-14T04:28:40.154Z,48.15
2018-02-14T04:31:08.560Z,46.80
2018-02-14T04:33:37.046Z,47.49
2018-02-14T04:36:05.431Z,46.69
2018-02-14T04:38:34.075Z,47.51
2018-02-14T04:41:02.481Z,46.58
2018-02-14T04:43:30.930Z,46.73
2018-02-14T04:45:59.334Z,48.80
2018-02-14T04:48:27.856Z,48.82
2018-02-14T04:50:56.365Z,48.51
2018-02-14T04:53:24.766Z,47.56
2018-02-14T04:55:53.228Z,45.60
2018-02-14T04:58:21.629Z,47.45
2018-02-14T05:00:50.117Z,46.99
2018-02-14T05:03:18.513Z,46.34
2018-02-14T05:05:46.906Z,46.64
2018-02-14T05:08:15.379Z,45.63
2018-02-14T05:10:43.856Z,47.34
2018-02-14T05:13:12.263Z,47.70
2018-02-14T05:15:40.651Z,47.68
2018-02-14T05:18:09.047Z,47.98
2018-02-14T05:20:37.481Z,45.42
2018-02-14T05:23:05.885Z,44.76
2018-02-14T05:25:34.288Z,46.53
2018-02-14T05:28:02.677Z,46.10
2018-02-14T05:30:31.062Z,45.72
2018-02-14T05:32:59.514Z,46.71
2018-02-14T05:35:27.913Z,48.94
2018-02-14T05:37:56.405Z,47.98
2018-02-14T05:40:24.798Z,47.58
2018-02-14T05:42:53.289Z,47.07
2018-02-14T05:45:21.727Z,47.35
2018-02-14T05:47:50.109Z,48.39
2018-02-14T05:50:18.603Z,47.92
2018-02-14T05:52:46.998Z,46.63
2018-02-14T05:55:15.406Z,48.65
2018-02-14T05:57:43.807Z,47.32
2018-02-14T06:00:12.213Z,47.30
2018-02-14T06:02:40.705Z,47.64
2018-02-14T06:05:09.120Z,49.18
2018-02-14T06:07:37.523Z,49.84
2018-02-14T06:10:05.990Z,50.19
2018-02-14T06:12:34.401Z,49.92
2018-02-14T06:15:03.092Z,49.75
2018-02-14T06:17:31.491Z,50.53
2018-02-14T06:19:59.974Z,48.60
2018-02-14T06:22:28.377Z,49.14
2018-02-14T06:24:56.782Z,49.21
2018-02-14T06:27:25.265Z,47.91
2018-02-14T06:29:53.663Z,50.95
2018-02-14T06:32:22.079Z,48.92
2018-02-14T06:34:50.459Z,49.60
2018-02-14T06:37:18.906Z,49.05
2018-02-14T06:39:47.348Z,48.22
2018-02-14T06:42:15.759Z,48.21
2018-02-14T06:44:44.239Z,48.79
2018-02-14T06:47:12.660Z,48.50
2018-02-14T06:49:41.070Z,48.22
2018-02-14T06:52:09.545Z,48.99
2018-02-14T06:54:37.922Z,51.63
2018-02-14T06:57:06.422Z,48.24
2018-02-14T06:59:34.892Z,48.36
2018-02-14T07:02:03.450Z,48.86
2018-02-14T07:04:32.011Z,48.75
2018-02-14T07:07:00.505Z,47.42
2018-02-14T07:09:28.907Z,46.17
2018-02-14T07:11:57.305Z,48.78
2018-02-14T07:14:25.718Z,50.09
2018-02-14T07:16:54.246Z,46.77
2018-02-14T07:19:22.656Z,48.35
2018-02-14T07:21:51.066Z,49.00
2018-02-14T07:24:19.450Z,49.71
2018-02-14T07:26:47.847Z,49.67
2018-02-14T07:29:16.608Z,47.72
2018-02-14T07:31:45.051Z,48.31
2018-02-14T07:34:13.458Z,47.05
2018-02-14T07:36:41.856Z,48.05
2018-02-14T07:39:10.254Z,50.07
2018-02-14T07:41:38.728Z,48.01
2018-02-14T07:44:07.129Z,49.31
2018-02-14T07:46:35.558Z,49.80
2018-02-14T07:49:03.990Z,49.41
2018-02-14T07:51:32.800Z,48.75
2018-02-14T07:54:01.583Z,50.71
2018-02-14T07:56:29.998Z,48.81
2018-02-14T07:58:58.401Z,46.66
2018-02-14T08:01:26.793Z,44.62
2018-02-14T08:03:55.199Z,44.58
2018-02-14T08:06:23.680Z,43.71
2018-02-14T08:08:52.066Z,42.33
2018-02-14T08:11:20.467Z,41.78
2018-02-14T08:13:48.967Z,42.90
2018-02-14T08:16:17.366Z,42.88
2018-02-14T08:18:45.842Z,43.16
2018-02-14T08:21:14.333Z,43.52
2018-02-14T08:23:42.738Z,41.11
2018-02-14T08:26:11.155Z,40.92
2018-02-14T08:28:39.666Z,41.47
2018-02-14T08:33:42.704Z,41.52
2018-02-14T08:36:11.214Z,40.94
2018-02-14T08:38:39.633Z,40.19
2018-02-14T08:41:08.051Z,38.32
2018-02-14T08:43:36.466Z,38.90
2018-02-14T08:46:04.871Z,38.90
2018-02-14T08:48:33.267Z,39.73
2018-02-14T08:51:01.688Z,38.40
2018-02-14T08:53:30.176Z,38.39
2018-02-14T08:55:58.682Z,37.79
2018-02-14T08:58:27.088Z,38.23
2018-02-14T09:00:55.484Z,38.17
2018-02-14T09:03:23.892Z,36.04
2018-02-14T09:05:52.410Z,33.61
2018-02-14T09:08:20.835Z,31.38
2018-02-14T09:10:49.233Z,30.59
2018-02-14T09:13:17.629Z,31.70
2018-02-14T09:15:46.047Z,30.32
2018-02-14T09:18:14.528Z,30.70
2018-02-14T09:20:43.005Z,31.15
2018-02-14T09:23:11.415Z,32.75
2018-02-14T09:25:39.833Z,32.52
2018-02-14T09:28:08.230Z,33.03
2018-02-14T09:30:36.685Z,33.23
2018-02-14T09:33:05.211Z,31.52
2018-02-14T09:35:33.968Z,31.64
2018-02-14T09:38:02.663Z,32.85
2018-02-14T09:40:31.060Z,32.61
2018-02-14T09:42:59.602Z,32.51
2018-02-14T09:45:28.004Z,34.34
2018-02-14T09:47:56.427Z,36.19
2018-02-14T09:50:24.809Z,36.76
2018-02-14T09:52:53.421Z,36.81
2018-02-14T09:55:21.902Z,36.03
2018-02-14T09:57:50.412Z,33.87
2018-02-14T10:00:19.080Z,32.95
2018-02-14T10:02:47.482Z,34.24
2018-02-14T10:05:15.867Z,32.38
2018-02-14T10:07:44.335Z,32.17
2018-02-14T10:10:12.737Z,32.13
2018-02-14T10:12:41.126Z,31.95
2018-02-14T10:15:09.568Z,32.12
2018-02-14T10:17:37.954Z,31.84
2018-02-14T10:20:06.445Z,31.38
2018-02-14T10:22:34.883Z,30.94
2018-02-14T10:25:03.282Z,31.67
2018-02-14T10:27:31.741Z,33.32
2018-02-14T10:30:00.142Z,32.59
2018-02-14T10:32:28.924Z,30.21
2018-02-14T10:34:57.357Z,31.34
2018-02-14T10:37:25.755Z,30.89
2018-02-14T10:39:54.245Z,30.99
2018-02-14T10:42:22.732Z,30.56
2018-02-14T10:44:51.217Z,28.64
2018-02-14T10:47:19.622Z,29.81
2018-02-14T10:49:48.028Z,29.94
2018-02-14T10:52:16.429Z,30.00
2018-02-14T10:54:44.813Z,29.40
2018-02-14T10:57:13.359Z,29.56
2018-02-14T10:59:41.837Z,30.47
2018-02-14T11:02:10.665Z,32.31
2018-02-14T11:04:44.595Z,31.66
2018-02-14T11:07:18.949Z,33.04
2018-02-14T11:09:47.429Z,34.83
2018-02-14T11:12:16.094Z,35.32
2018-02-14T11:14:44.575Z,36.22
2018-02-14T11:17:12.961Z,38.35
2018-02-14T11:19:41.355Z,38.07
2018-02-14T11:22:09.755Z,38.79
2018-02-14T11:24:38.186Z,38.80
2018-02-14T11:27:06.716Z,38.12
2018-02-14T11:29:35.109Z,39.05
2018-02-14T11:32:03.514Z,38.81
2018-02-14T11:34:31.932Z,39.05
2018-02-14T11:37:00.329Z,40.04
2018-02-14T11:39:28.807Z,39.73
2018-02-14T11:41:57.197Z,40.58
2018-02-14T11:44:25.606Z,40.26
2018-02-14T11:46:54.027Z,39.46
2018-02-14T11:49:22.450Z,39.12
2018-02-14T11:51:50.849Z,39.50
2018-02-14T11:54:19.250Z,40.47
2018-02-14T11:56:47.720Z,39.34
2018-02-14T11:59:16.227Z,38.07
2018-02-14T12:01:44.609Z,37.68
2018-02-14T12:04:12.989Z,38.69
2018-02-14T12:06:41.480Z,35.77
2018-02-14T12:09:09.953Z,32.86
2018-02-14T12:11:38.338Z,32.14
2018-02-14T12:14:06.761Z,31.34
2018-02-14T12:16:35.161Z,30.27
2018-02-14T12:19:03.581Z,29.22
2018-02-14T12:21:32.028Z,28.62
2018-02-14T12:24:00.431Z,28.28
2018-02-14T12:26:28.838Z,27.83
2018-02-14T12:28:57.238Z,25.88
2018-02-14T12:31:25.630Z,27.25
2018-02-14T12:33:54.069Z,27.17
2018-02-14T12:36:22.461Z,27.60
2018-02-14T12:38:50.999Z,27.34
2018-02-14T12:41:19.467Z,28.68
2018-02-14T12:43:47.978Z,29.13
2018-02-14T12:46:16.445Z,28.78
2018-02-14T12:48:44.832Z,27.44
2018-02-14T12:51:13.323Z,27.08
2018-02-14T12:53:41.739Z,27.36
2018-02-14T12:56:10.147Z,30.59
2018-02-14T12:58:38.690Z,28.00
2018-02-14T13:01:07.105Z,28.14
2018-02-14T13:03:35.515Z,28.82
2018-02-14T13:06:03.920Z,28.50
2018-02-14T13:08:32.321Z,26.71
2018-02-14T13:11:00.858Z,25.95
2018-02-14T13:13:29.327Z,26.23
2018-02-14T13:15:57.706Z,28.44
2018-02-14T13:18:26.147Z,27.22
2018-02-14T13:20:54.567Z,28.31
2018-02-14T13:23:23.341Z,29.59
2018-02-14T13:25:51.731Z,29.49
2018-02-14T13:28:20.152Z,30.35
2018-02-14T13:30:48.570Z,30.59
2018-02-14T13:33:16.968Z,33.76
2018-02-14T13:35:45.713Z,33.85
2018-02-14T13:38:14.125Z,35.24
2018-02-14T13:40:42.530Z,35.67
2018-02-14T13:43:10.944Z,36.47
2018-02-14T13:45:39.369Z,37.76
2018-02-14T13:48:07.861Z,36.15
2018-02-14T13:50:36.262Z,37.08
2018-02-14T13:53:04.801Z,37.39
2018-02-14T13:55:33.385Z,37.31
2018-02-14T13:58:01.805Z,37.53
2018-02-14T14:00:30.346Z,38.63
2018-02-14T14:02:58.897Z,38.32
2018-02-14T14:05:27.311Z,38.93
2018-02-14T14:07:56.704Z,38.04
2018-02-14T14:10:25.102Z,37.82
2018-02-14T14:12:53.613Z,39.32
2018-02-14T14:15:22.096Z,38.16
2018-02-14T14:17:50.478Z,38.12
2018-02-14T14:20:19.047Z,38.44
2018-02-14T14:22:47.494Z,39.40
2018-02-14T14:25:15.888Z,40.15
2018-02-14T14:27:44.292Z,40.00
2018-02-14T14:30:12.682Z,40.70
2018-02-14T14:32:41.249Z,39.47
2018-02-14T14:35:09.745Z,38.79
2018-02-14T14:37:38.177Z,38.28
2018-02-14T14:40:06.606Z,39.53
2018-02-14T14:42:35.035Z,39.44
2018-02-14T14:45:03.428Z,38.42
2018-02-14T14:47:31.994Z,38.64
2018-02-14T14:50:00.527Z,39.44
2018-02-14T14:52:28.999Z,39.52
2018-02-14T14:54:57.435Z,38.85
2018-02-14T14:57:25.924Z,38.24
2018-02-14T14:59:54.306Z,38.27
2018-02-14T15:02:22.689Z,38.10
2018-02-14T15:04:51.176Z,39.11
2018-02-14T15:07:19.576Z,38.25
2018-02-14T15:09:48.076Z,37.75
2018-02-14T15:12:16.485Z,38.72
2018-02-14T15:14:44.962Z,36.91
2018-02-14T15:17:13.366Z,38.04
2018-02-14T15:19:41.759Z,38.17
2018-02-14T15:22:10.160Z,37.31
2018-02-14T15:24:38.596Z,37.81
2018-02-14T15:27:07.089Z,37.91
2018-02-14T15:29:35.485Z,38.17
2018-02-14T15:32:03.886Z,37.74
2018-02-14T15:34:32.294Z,36.94
2018-02-14T15:37:00.705Z,38.95
2018-02-14T15:39:29.116Z,38.15
2018-02-14T15:41:57.545Z,37.90
2018-02-14T15:44:26.009Z,39.66
2018-02-14T15:46:54.436Z,38.56
2018-02-14T15:49:22.961Z,40.15
2018-02-14T15:51:51.433Z,38.92
2018-02-14T15:54:19.941Z,38.66
2018-02-14T15:56:48.456Z,39.56
2018-02-14T15:59:16.981Z,39.97
2018-02-14T16:01:45.391Z,38.99
2018-02-14T16:04:13.778Z,40.18
2018-02-14T16:06:42.197Z,39.69
2018-02-14T16:09:10.624Z,38.74
2018-02-14T16:11:39.120Z,39.19
2018-02-14T16:14:07.629Z,39.92
2018-02-14T16:16:36.040Z,39.76
2018-02-14T16:19:04.586Z,40.77
2018-02-14T16:21:33.063Z,40.72
2018-02-14T16:24:01.551Z,40.89
2018-02-14T16:26:29.997Z,40.83
2018-02-14T16:28:58.399Z,39.25
2018-02-14T16:31:27.192Z,39.68
2018-02-14T16:33:55.620Z,39.76
2018-02-14T16:36:24.041Z,38.33
2018-02-14T16:38:52.523Z,38.95
2018-02-14T16:41:21.165Z,39.64
2018-02-14T16:43:49.779Z,39.93
2018-02-14T16:46:18.190Z,40.20
2018-02-14T16:48:46.611Z,39.32
2018-02-14T16:51:15.014Z,40.93
2018-02-14T16:53:43.502Z,40.25
2018-02-14T16:56:11.953Z,39.69
2018-02-14T16:58:40.430Z,38.89
2018-02-14T17:01:08.912Z,40.48
2018-02-14T17:03:37.302Z,40.44
2018-02-14T17:06:05.737Z,40.26
2018-02-14T17:08:34.205Z,39.82
2018-02-14T17:11:02.607Z,39.78
2018-02-14T17:13:31.059Z,39.45
2018-02-14T17:15:59.588Z,39.07
2018-02-14T17:18:27.992Z,41.38
2018-02-14T17:20:56.453Z,43.63
2018-02-14T17:23:24.835Z,42.50
2018-02-14T17:25:53.310Z,41.93
2018-02-14T17:28:21.714Z,42.11
2018-02-14T17:30:50.124Z,43.29
2018-02-14T17:33:18.535Z,43.31
2018-02-14T17:35:46.924Z,42.28
2018-02-14T17:38:15.386Z,42.62
2018-02-14T17:40:43.807Z,43.23
2018-02-14T17:43:12.210Z,41.03
2018-02-14T17:45:40.607Z,43.30
2018-02-14T17:48:09.044Z,42.73
2018-02-14T17:50:37.444Z,44.04
2018-02-14T17:53:05.847Z,43.30
2018-02-14T17:55:34.249Z,44.44
2018-02-14T17:58:02.664Z,44.44
2018-02-14T18:00:31.078Z,44.30
2018-02-14T18:03:00.445Z,42.85
2018-02-14T18:05:29.006Z,43.43
2018-02-14T18:07:57.503Z,44.21
2018-02-14T18:10:25.925Z,44.38
2018-02-14T18:12:54.309Z,43.40
2018-02-14T18:15:22.731Z,43.05
2018-02-14T18:17:51.229Z,43.46
2018-02-14T18:20:19.626Z,42.88
2018-02-14T18:22:48.311Z,41.43
2018-02-14T18:25:16.718Z,43.00
2018-02-14T18:27:45.248Z,43.39
2018-02-14T18:30:13.716Z,43.16
2018-02-14T18:32:42.135Z,42.76
2018-02-14T18:35:10.544Z,43.81
2018-02-14T18:37:38.934Z,42.41
2018-02-14T18:40:07.346Z,43.06
2018-02-14T18:42:36.645Z,41.75
2018-02-14T18:45:05.233Z,43.58
2018-02-14T18:47:33.630Z,42.81
2018-02-14T18:50:02.382Z,41.93
2018-02-14T18:52:30.797Z,42.63
2018-02-14T18:54:59.232Z,43.50
2018-02-14T18:57:27.633Z,43.04
2018-02-14T18:59:56.162Z,42.29
2018-02-14T19:02:24.698Z,42.49
2018-02-14T19:04:53.102Z,42.35
2018-02-14T19:07:21.505Z,43.14
2018-02-14T19:09:49.933Z,41.07
2018-02-14T19:12:18.333Z,43.33
2018-02-14T19:14:46.943Z,43.67
2018-02-14T19:17:15.393Z,42.12
2018-02-14T19:19:43.884Z,42.11
2018-02-14T19:22:12.349Z,43.35
2018-02-14T19:24:40.907Z,43.73
2018-02-14T19:27:09.953Z,43.20
2018-02-14T19:29:38.386Z,44.04
2018-02-14T19:32:06.906Z,42.99
2018-02-14T19:34:35.300Z,43.46
2018-02-14T19:37:03.682Z,41.72
2018-02-14T19:39:32.151Z,43.88
2018-02-14T19:42:00.564Z,43.87
2018-02-14T19:44:29.045Z,43.19
2018-02-14T19:46:57.443Z,44.20
2018-02-14T19:49:25.915Z,45.06
2018-02-14T19:51:54.320Z,45.30
2018-02-14T19:54:22.818Z,44.91
2018-02-14T19:56:51.646Z,44.86
2018-02-14T19:59:20.137Z,44.21
2018-02-14T20:01:48.613Z,44.27
2018-02-14T20:04:17.086Z,44.75
2018-02-14T20:06:45.492Z,46.40
2018-02-14T20:09:14.053Z,45.40
2018-02-14T20:11:42.474Z,45.63
2018-02-14T20:14:11.029Z,44.68
2018-02-14T20:16:39.646Z,45.66
2018-02-14T20:19:08.113Z,45.33
2018-02-14T20:21:36.497Z,44.10
2018-02-14T20:24:04.975Z,46.84
2018-02-14T20:26:33.377Z,46.34
2018-02-14T20:29:01.761Z,45.35
2018-02-14T20:31:30.526Z,44.87
2018-02-14T20:33:58.924Z,47.02
2018-02-14T20:36:27.326Z,47.48
2018-02-14T20:38:55.737Z,47.42
2018-02-14T20:41:24.241Z,47.56
2018-02-14T20:43:52.695Z,47.70
2018-02-14T20:46:21.170Z,48.64
2018-02-14T20:48:49.595Z,49.88
2018-02-14T20:51:18.159Z,49.47
2018-02-14T20:53:46.529Z,47.54
2018-02-14T20:56:15.077Z,49.16
2018-02-14T20:58:43.451Z,49.38
2018-02-14T21:01:11.873Z,49.92
2018-02-14T21:03:40.283Z,50.63
2018-02-14T21:06:08.758Z,50.64
2018-02-14T21:08:37.184Z,50.93
2018-02-14T21:11:05.571Z,50.13
2018-02-14T21:13:34.050Z,51.19
2018-02-14T21:16:02.470Z,51.20
2018-02-14T21:18:30.878Z,51.64
2018-02-14T21:20:59.262Z,50.28
2018-02-14T21:23:27.699Z,50.88
2018-02-14T21:25:56.162Z,51.70
2018-02-14T21:28:24.582Z,51.37
2018-02-14T21:30:53.073Z,51.07
2018-02-14T21:33:21.470Z,50.78
2018-02-14T21:35:49.889Z,50.26
2018-02-14T21:38:18.368Z,51.32
2018-02-14T21:40:46.905Z,51.19
2018-02-14T21:43:15.315Z,50.74
2018-02-14T21:45:43.740Z,51.63
2018-02-14T21:48:12.132Z,51.81
2018-02-14T21:50:40.575Z,52.83
2018-02-14T21:53:09.052Z,51.57
2018-02-14T21:55:37.467Z,51.74
2018-02-14T21:58:05.916Z,49.63
2018-02-14T22:00:34.294Z,51.09
2018-02-14T22:03:02.783Z,52.45
2018-02-14T22:05:31.195Z,51.22
2018-02-14T22:07:59.594Z,51.70
2018-02-14T22:10:27.965Z,50.56
2018-02-14T22:12:56.383Z,51.61
2018-02-14T22:15:24.815Z,51.42
2018-02-14T22:17:53.229Z,51.64
2018-02-14T22:20:21.697Z,50.94
2018-02-14T22:22:50.192Z,50.84
2018-02-14T22:25:18.926Z,51.35
2018-02-14T22:27:47.414Z,49.86
2018-02-14T22:30:16.815Z,51.07
2018-02-14T22:32:45.278Z,50.53
2018-02-14T22:35:13.700Z,50.47
2018-02-14T22:37:42.095Z,51.68
2018-02-14T22:40:10.499Z,51.06
2018-02-14T22:42:38.868Z,52.22
2018-02-14T22:45:07.285Z,51.48
2018-02-14T22:47:35.667Z,51.39
2018-02-14T22:50:04.113Z,49.98
2018-02-14T22:52:32.480Z,51.72
2018-02-14T22:55:00.844Z,51.86
2018-02-14T22:57:29.309Z,52.12
2018-02-14T22:59:57.678Z,52.54
2018-02-14T23:02:26.050Z,51.36
2018-02-14T23:04:54.451Z,52.32
2018-02-14T23:07:22.864Z,51.30
2018-02-14T23:09:51.427Z,51.42
2018-02-14T23:12:19.839Z,51.77
2018-02-14T23:14:48.315Z,50.18
2018-02-14T23:17:16.678Z,51.23
2018-02-14T23:19:45.053Z,49.88
2018-02-14T23:22:13.507Z,49.45
2018-02-14T23:24:42.105Z,49.64
2018-02-14T23:27:10.783Z,49.79
2018-02-14T23:29:39.445Z,49.54
2018-02-14T23:32:07.935Z,49.23
2018-02-14T23:34:36.378Z,49.24
2018-02-14T23:37:04.761Z,48.66
2018-02-14T23:39:33.159Z,49.75
2018-02-14T23:42:01.541Z,49.96
2018-02-14T23:44:30.011Z,51.40
2018-02-14T23:46:58.391Z,51.23
2018-02-14T23:49:26.762Z,50.83
2018-02-14T23:51:55.135Z,51.52
2018-02-14T23:54:23.516Z,49.21
2018-02-14T23:56:51.987Z,48.42
2018-02-14T23:59:20.393Z,50.83
